Impacts TAF Board INFO
FOR SITUATIONAL AWARENESS. NOT TO BE USED FOR FLIGHT PLANNING PURPOSES.
IDs:

KMCO - Orlando Intl, FL, US

Issued at 1142 UTC 22 Feb 2018
Updated at 1430 UTC 22 Feb 2018
Potential Impact None Slight Moderate High
Time<<23/03Z 23/04Z 23/05Z 23/06Z 23/07Z 23/08Z 23/09Z 23/10Z 23/11Z 23/12Z 23/13Z 23/14Z 23/15Z>>
Type PRVL PRVL PRVL PRVL PRVL PRVL PRVL PRVL PRVL PRVL PRVL PRVL PRVL
VIS >6 >6 >6 >6 >6 >6 >6 >6 >6 >6 >6 >6 >6
CIG -- -- -- -- -- -- -- -- -- -- -- -- --
Cover FEW FEW FEW FEW FEW FEW FEW FEW FEW FEW FEW SCT SCT
FltCat VFR VFR VFR VFR VFR VFR VFR VFR VFR VFR VFR VFR VFR
WX -- -- -- -- -- -- -- -- -- -- -- -- --
WDir 60 60 60 60 60 60 60 60 60 60 60 110 110
WSpd 5 5 5 5 5 5 5 5 5 5 5 10 10
WGst -- -- -- -- -- -- -- -- -- -- -- -- --

Raw TAF
KMCO 221142Z 2212/2318 07007KT P6SM FEW020 SCT040
  FM221500 09010KT P6SM SCT040
  FM230200 06005KT P6SM FEW040
  FM231400 11010KT P6SM SCT030 SCT060


METAR Board
Radar Display
Forecast Discussion

FOR SITUATIONAL AWARENESS. NOT TO BE USED FOR FLIGHT PLANNING PURPOSES.